Terminal Aerodrome Forecast
Issued by NWS

Home | Current Version | Previous Version | Text Only | Print | Product List | Glossary On
Versions: 1 2 3 4 5 6 7 8 9 10 11 12 13 14 15 16 17
402
FTUS42 KTBW 262357 AAB
TAFPGD
TAF AMD
KPGD 262357Z 2700/2724 24009KT P6SM VCTS SCT040CB BKN150
      TEMPO 2700/2701 VRB15G25KT 2SM TSRA BKN025CB
     FM270100 VRB04KT P6SM FEW150
     FM271400 12005KT P6SM FEW035 SCT250=

USA.gov is the U.S. government's official web portal to all federal, state and local government web resources and services.